x

Monterey - 27nm Wnw Of Monterey, Ca (46042) Wave Buoy

4:50pm - Tue 31st May 2016 All times are PDT. -7 hours from GMT.

  • Sig Wave height 5.2ft
  • Swell Direction
  • Peak Period 16s
  • Average Period 8s
  • Wind
    11mph, 13mph gusts
  • Sea Temp 57°f
  • Air Temp 55°f
  • Sea Pressure 1011.4mb
  • Monterey - 27nm Wnw Of Monterey, Ca
  • Monterey - 27nm Wnw Of Monterey, Ca

More Historic Weather Station data

Upgrade to MSW Pro to gain access to the past 30 days of data for over 8000 Wavebouys and Weather Stations around the globe.

Join Pro

Comparision Forecast

View Surf forecast
   
Tue 05/31 4:50pm 5ft 16s 8s 11 13 mph 1011.4mb 57f 55f
3:50pm 5ft 16s 7s 11 16 mph 1011.8mb 57f 55f
2:50pm 5ft 15s 7s 11 13 mph 1012.2mb 57f 55f
1:50pm 5ft 16s 8s 11 13 mph 1012.4mb 57f 55f
12:50pm 5ft 16s 7s 9 11 mph 1012.9mb 57f 55f
11:50am 5.5ft 16s 8s 7 11 mph 1013.1mb 57f 54f
10:50am 5ft 16s 7s 9
mph
1013mb 57f 54f
9:50am 5ft 16s 7s 7 9 mph 1012.9mb 57f 53f
8:50am 5ft 16s 7s 7 9 mph 1012.9mb 57f 53f
7:50am 5ft 17s 7s 7 11 mph 1012.6mb 57f 53f
6:50am 5ft 16s 7s 9 11 mph 1012.2mb 57f 53f
5:50am 6ft 17s 8s 11 13 mph 1011.9mb 57f 53f
4:50am 5ft 17s  -  11 16 mph 1012.1mb 56f 54f
3:50am 5ft 17s 7s 13 16 mph 1012.2mb 56f 54f
2:50am 5.5ft 17s 7s 11 13 mph 1012.7mb 56f 54f
1:50am 5ft 17s 7s 13 18 mph 1013.1mb 56f 53f
12:50am 5ft 8s 7s 13 16 mph 1013.6mb 56f 53f
Mon 05/30 11:50pm 6ft 17s 8s 11 13 mph 1014.1mb 56f 53f
10:50pm 5ft 8s 7s 11 13 mph 1014.5mb 57f 54f
9:50pm 5.5ft 8s 7s 9 13 mph 1014.7mb 57f 55f
8:50pm 5ft 17s 7s 11 16 mph 1014.4mb 57f 54f
7:50pm 5ft 8s 7s 11 16 mph 1014.4mb 57f 53f
6:50pm 5.5ft 17s 7s 11 13 mph 1014.6mb 57f 53f
5:50pm 5ft 13s 7s 9 13 mph 1014.9mb 57f 54f
4:50pm 5ft 14s 7s 9 11 mph 1015.2mb 57f 54f
3:50pm 5.5ft 8s 7s 7 11 mph 1015.7mb 57f 54f
2:50pm 5.5ft 9s 7s 7 9 mph 1016mb 57f 55f
1:50pm 5.5ft 8s 7s 7 9 mph 1016.5mb 57f 55f
12:50pm 6ft 8s 7s 4 9 mph 1016.7mb 58f 54f
11:50am 6ft 8s 7s 2 4 mph 1016.7mb 57f 55f
10:50am 7ft 8s 7s  -  2 mph 1016.5mb 56f 56f
9:50am 6ft 8s 7s  -  2 mph 1016.6mb 56f 55f
8:50am 6ft 9s 7s 2
mph
1016.6mb 56f 54f
7:50am 6ft 9s 7s  -  4 mph 1016.2mb 56f 54f
6:50am 6ft 9s 7s 2 7 mph 1016mb 56f 54f
5:50am 5.5ft 9s 7s 4 9 mph 1015.6mb 56f 54f
4:50am 6ft 8s 7s 4 7 mph 1015.6mb 56f 55f
3:50am 5ft 8s 6s 7 9 mph 1015.8mb 56f 55f
2:50am 5.5ft 9s 7s 7 9 mph 1016.2mb 56f 55f
1:50am 6ft 9s 7s 7 9 mph 1016.4mb 56f 55f
12:50am 6ft 8s 6s 9 11 mph 1016.6mb 56f 55f
Sun 05/29 11:50pm 6.5ft 9s 7s 13 18 mph 1016.7mb 56f 55f
10:50pm 6ft 9s 6s 13 16 mph 1016.9mb 56f 55f
9:50pm 5.5ft 9s 6s 16 20 mph 1016.6mb 56f 53f
8:50pm 6ft 8s 6s 11 16 mph 1016.2mb 56f 53f
7:50pm 6ft 9s 6s 13 18 mph 1016mb 56f 53f
6:50pm 6ft 8s 7s 13 18 mph 1016.1mb 56f 54f
5:50pm 6ft 8s 7s 13 18 mph 1016mb 56f 54f
4:50pm 6.5ft 9s 7s 11 16 mph 1016.5mb 57f 55f
3:50pm 7.5ft 9s 7s 11 16 mph 1016.7mb 57f 55f
2:50pm 7ft 8s 7s 7 9 mph 1017.1mb 57f 56f
1:50pm 7ft 9s 7s 2 7 mph 1017.3mb 57f 56f
12:50pm 7ft 9s 7s 2 4 mph 1017.3mb 57f 55f
11:50am 7ft 9s 7s 4 7 mph 1017.3mb 56f 55f
10:50am 7ft 9s 7s 2 4 mph 1017.1mb 56f 55f
9:50am 6ft 9s 7s 4 7 mph 1016.9mb 56f 55f
8:50am 6.5ft 9s 7s  -  2 mph 1016.5mb 55f 55f
7:50am 6ft 9s 7s 4 7 mph 1015.7mb 55f 55f
6:50am 7ft 9s 7s 7 9 mph 1015mb 55f 55f
5:50am 6ft 8s 7s 4 7 mph 1014mb 55f 55f
4:50am 6ft 7s 7s 2 4 mph 1013.5mb 55f 54f
3:50am 6.5ft 9s 7s  -  mph 1013.4mb 55f 54f
2:50am 6ft 8s 7s 2 4 mph 1013.5mb 55f 55f
1:50am 6ft 9s 7s 2 4 mph 1013.6mb 55f 55f
12:50am 7ft 8s 7s 4 7 mph 1013.7mb 55f 55f
Sat 05/28 11:50pm 7ft 8s 7s 4 7 mph 1013.7mb 55f 55f
10:50pm 7.5ft 9s 7s 9 11 mph 1013.8mb 55f 55f
9:50pm 7.5ft 9s 7s 9 11 mph 1013.6mb 55f 55f
8:50pm 7.5ft 9s 7s 9 11 mph 1013.1mb 55f 55f
7:50pm 7ft 9s 7s 11 13 mph 1012.5mb 56f 56f
6:50pm 7ft 8s 6s 11 13 mph 1012.1mb 56f 56f
5:50pm 7.5ft 9s 7s 9 11 mph 1012mb 56f 56f
4:50pm 7.5ft 9s 7s 7 9 mph 1012.1mb 56f 56f
3:50pm 7ft 8s 6s 11 13 mph 1012.1mb 56f 56f
2:50pm 7.5ft 8s 7s 13 16 mph 1012.1mb 55f 55f
1:50pm 7ft 9s 6s 13 18 mph 1012mb 55f 55f
12:50pm 8ft 10s 7s 13 18 mph 1012mb 55f 55f
11:50am 8ft 10s 7s 13 18 mph 1011.8mb 55f 55f
10:50am 8ft 11s 7s 13 16 mph 1011.5mb 55f 55f
9:50am 9.5ft 9s 7s 13 18 mph 1011.2mb 55f 55f
8:50am 9ft 11s 7s 13 18 mph 1011mb 55f 55f
7:50am 10ft 11s 7s 16 18 mph 1010.7mb 55f 54f
6:50am 9ft 10s 6s 18 22 mph 1010.2mb 55f 54f
5:50am 9ft 10s 7s 20 25 mph 1009.6mb 55f 54f
4:50am 9ft 10s 7s 20 27 mph 1009.4mb 55f 55f
3:50am 9ft 11s 7s 20 25 mph 1009.6mb 55f 55f
2:50am 9ft 10s 7s 20 25 mph 1009.7mb 55f 55f
1:50am 9ft 10s 7s 18 22 mph 1010.3mb 55f 55f